sensor_id;sensor_type;location;lat;lon;timestamp;P1;durP1;ratioP1;P2;durP2;ratioP2
69172;SDS011;56280;49.662;8.408;2023-04-06T00:02:24;26.50;;;24.20;;
69172;SDS011;56280;49.662;8.408;2023-04-06T00:04:50;28.13;;;25.50;;
69172;SDS011;56280;49.662;8.408;2023-04-06T00:07:15;31.13;;;28.23;;
69172;SDS011;56280;49.662;8.408;2023-04-06T00:09:40;33.90;;;31.00;;
69172;SDS011;56280;49.662;8.408;2023-04-06T00:12:06;31.00;;;28.30;;
69172;SDS011;56280;49.662;8.408;2023-04-06T00:14:31;31.30;;;28.33;;
69172;SDS011;56280;49.662;8.408;2023-04-06T00:16:56;31.43;;;28.63;;
69172;SDS011;56280;49.662;8.408;2023-04-06T00:19:21;32.03;;;29.00;;
69172;SDS011;56280;49.662;8.408;2023-04-06T00:21:47;28.83;;;26.47;;
69172;SDS011;56280;49.662;8.408;2023-04-06T00:24:12;30.33;;;27.57;;
69172;SDS011;56280;49.662;8.408;2023-04-06T00:26:37;28.67;;;26.23;;
69172;SDS011;56280;49.662;8.408;2023-04-06T00:29:03;29.17;;;26.73;;
69172;SDS011;56280;49.662;8.408;2023-04-06T00:31:28;29.83;;;27.10;;
69172;SDS011;56280;49.662;8.408;2023-04-06T00:33:53;29.97;;;27.33;;
69172;SDS011;56280;49.662;8.408;2023-04-06T00:36:18;27.20;;;24.77;;
69172;SDS011;56280;49.662;8.408;2023-04-06T00:38:44;28.30;;;25.80;;
69172;SDS011;56280;49.662;8.408;2023-04-06T00:41:11;29.63;;;26.92;;
69172;SDS011;56280;49.662;8.408;2023-04-06T00:43:36;30.63;;;28.10;;
69172;SDS011;56280;49.662;8.408;2023-04-06T00:46:02;31.43;;;28.53;;
69172;SDS011;56280;49.662;8.408;2023-04-06T00:48:27;29.90;;;27.30;;
69172;SDS011;56280;49.662;8.408;2023-04-06T00:50:52;31.93;;;29.17;;
69172;SDS011;56280;49.662;8.408;2023-04-06T00:53:18;32.47;;;29.67;;
69172;SDS011;56280;49.662;8.408;2023-04-06T00:55:43;31.13;;;27.97;;
69172;SDS011;56280;49.662;8.408;2023-04-06T00:58:08;29.35;;;26.55;;
69172;SDS011;56280;49.662;8.408;2023-04-06T01:00:34;30.63;;;27.93;;
69172;SDS011;56280;49.662;8.408;2023-04-06T01:02:59;26.85;;;24.45;;
69172;SDS011;56280;49.662;8.408;2023-04-06T01:05:25;27.45;;;25.15;;
69172;SDS011;56280;49.662;8.408;2023-04-06T01:07:51;27.05;;;24.80;;
69172;SDS011;56280;49.662;8.408;2023-04-06T01:10:23;25.80;;;23.63;;
69172;SDS011;56280;49.662;8.408;2023-04-06T01:12:53;27.55;;;25.13;;
69172;SDS011;56280;49.662;8.408;2023-04-06T01:15:18;29.65;;;27.15;;
69172;SDS011;56280;49.662;8.408;2023-04-06T01:17:44;27.75;;;25.25;;
69172;SDS011;56280;49.662;8.408;2023-04-06T01:20:10;26.13;;;23.80;;
69172;SDS011;56280;49.662;8.408;2023-04-06T01:22:35;25.43;;;23.07;;
69172;SDS011;56280;49.662;8.408;2023-04-06T01:25:00;26.80;;;24.50;;
69172;SDS011;56280;49.662;8.408;2023-04-06T01:27:26;28.63;;;26.23;;
69172;SDS011;56280;49.662;8.408;2023-04-06T01:29:53;27.75;;;25.35;;
69172;SDS011;56280;49.662;8.408;2023-04-06T01:32:19;26.75;;;24.05;;
69172;SDS011;56280;49.662;8.408;2023-04-06T01:34:44;29.52;;;26.73;;
69172;SDS011;56280;49.662;8.408;2023-04-06T01:37:10;27.50;;;25.03;;
69172;SDS011;56280;49.662;8.408;2023-04-06T01:39:35;26.60;;;24.00;;
69172;SDS011;56280;49.662;8.408;2023-04-06T01:42:01;26.10;;;23.73;;
69172;SDS011;56280;49.662;8.408;2023-04-06T01:44:26;24.53;;;22.20;;
69172;SDS011;56280;49.662;8.408;2023-04-06T01:46:51;25.63;;;23.23;;
69172;SDS011;56280;49.662;8.408;2023-04-06T01:49:17;22.30;;;20.20;;
69172;SDS011;56280;49.662;8.408;2023-04-06T01:51:42;22.90;;;20.70;;
69172;SDS011;56280;49.662;8.408;2023-04-06T01:54:07;23.60;;;21.20;;
69172;SDS011;56280;49.662;8.408;2023-04-06T01:56:32;24.27;;;21.73;;
69172;SDS011;56280;49.662;8.408;2023-04-06T01:58:58;32.73;;;26.03;;
69172;SDS011;56280;49.662;8.408;2023-04-06T02:01:23;30.97;;;26.47;;
69172;SDS011;56280;49.662;8.408;2023-04-06T02:03:48;25.87;;;23.17;;
69172;SDS011;56280;49.662;8.408;2023-04-06T02:06:14;26.27;;;22.50;;
69172;SDS011;56280;49.662;8.408;2023-04-06T02:08:39;23.37;;;20.90;;
69172;SDS011;56280;49.662;8.408;2023-04-06T02:11:05;26.47;;;23.93;;
69172;SDS011;56280;49.662;8.408;2023-04-06T02:13:30;24.70;;;22.13;;
69172;SDS011;56280;49.662;8.408;2023-04-06T02:15:56;23.95;;;21.63;;
69172;SDS011;56280;49.662;8.408;2023-04-06T02:18:22;22.87;;;20.57;;
69172;SDS011;56280;49.662;8.408;2023-04-06T02:20:48;24.02;;;21.63;;
69172;SDS011;56280;49.662;8.408;2023-04-06T02:23:13;24.13;;;21.80;;
69172;SDS011;56280;49.662;8.408;2023-04-06T02:25:38;24.90;;;22.43;;
69172;SDS011;56280;49.662;8.408;2023-04-06T02:28:04;24.60;;;22.00;;
69172;SDS011;56280;49.662;8.408;2023-04-06T02:30:29;25.43;;;22.93;;
69172;SDS011;56280;49.662;8.408;2023-04-06T02:32:56;24.60;;;22.10;;
69172;SDS011;56280;49.662;8.408;2023-04-06T02:35:21;24.47;;;21.97;;
69172;SDS011;56280;49.662;8.408;2023-04-06T02:37:47;26.10;;;23.33;;
69172;SDS011;56280;49.662;8.408;2023-04-06T02:40:13;25.00;;;22.53;;
69172;SDS011;56280;49.662;8.408;2023-04-06T02:42:38;26.70;;;24.02;;
69172;SDS011;56280;49.662;8.408;2023-04-06T02:45:04;24.37;;;21.87;;
69172;SDS011;56280;49.662;8.408;2023-04-06T02:47:30;24.20;;;21.73;;
69172;SDS011;56280;49.662;8.408;2023-04-06T02:49:55;23.77;;;21.40;;
69172;SDS011;56280;49.662;8.408;2023-04-06T02:52:20;25.02;;;22.50;;
69172;SDS011;56280;49.662;8.408;2023-04-06T02:54:45;24.33;;;21.97;;
69172;SDS011;56280;49.662;8.408;2023-04-06T02:57:11;23.77;;;21.47;;
69172;SDS011;56280;49.662;8.408;2023-04-06T02:59:36;22.57;;;20.17;;
69172;SDS011;56280;49.662;8.408;2023-04-06T03:02:01;25.33;;;22.73;;
69172;SDS011;56280;49.662;8.408;2023-04-06T03:04:26;25.47;;;23.17;;
69172;SDS011;56280;49.662;8.408;2023-04-06T03:06:53;22.73;;;20.43;;
69172;SDS011;56280;49.662;8.408;2023-04-06T03:09:19;25.23;;;22.70;;
69172;SDS011;56280;49.662;8.408;2023-04-06T03:11:44;23.88;;;21.58;;
69172;SDS011;56280;49.662;8.408;2023-04-06T03:14:09;25.27;;;22.77;;
69172;SDS011;56280;49.662;8.408;2023-04-06T03:16:35;23.67;;;21.27;;
69172;SDS011;56280;49.662;8.408;2023-04-06T03:19:00;23.03;;;20.77;;
69172;SDS011;56280;49.662;8.408;2023-04-06T03:21:25;24.67;;;22.17;;
69172;SDS011;56280;49.662;8.408;2023-04-06T03:23:51;24.20;;;21.67;;
69172;SDS011;56280;49.662;8.408;2023-04-06T03:26:16;23.23;;;20.83;;
69172;SDS011;56280;49.662;8.408;2023-04-06T03:28:42;25.20;;;22.60;;
69172;SDS011;56280;49.662;8.408;2023-04-06T03:31:07;23.03;;;20.63;;
69172;SDS011;56280;49.662;8.408;2023-04-06T03:33:32;22.30;;;19.90;;
69172;SDS011;56280;49.662;8.408;2023-04-06T03:35:57;24.47;;;21.80;;
69172;SDS011;56280;49.662;8.408;2023-04-06T03:38:23;25.13;;;22.63;;
69172;SDS011;56280;49.662;8.408;2023-04-06T03:40:48;24.67;;;22.00;;
69172;SDS011;56280;49.662;8.408;2023-04-06T03:43:13;24.00;;;21.50;;
69172;SDS011;56280;49.662;8.408;2023-04-06T03:45:39;26.37;;;23.73;;
69172;SDS011;56280;49.662;8.408;2023-04-06T03:48:05;24.03;;;20.80;;
69172;SDS011;56280;49.662;8.408;2023-04-06T03:50:30;23.77;;;21.30;;
69172;SDS011;56280;49.662;8.408;2023-04-06T03:52:55;23.40;;;20.90;;
69172;SDS011;56280;49.662;8.408;2023-04-06T03:55:21;22.27;;;20.00;;
69172;SDS011;56280;49.662;8.408;2023-04-06T03:57:46;24.25;;;21.83;;
69172;SDS011;56280;49.662;8.408;2023-04-06T04:00:12;24.85;;;22.48;;
69172;SDS011;56280;49.662;8.408;2023-04-06T04:02:38;24.77;;;21.90;;
69172;SDS011;56280;49.662;8.408;2023-04-06T04:05:03;22.65;;;20.25;;
69172;SDS011;56280;49.662;8.408;2023-04-06T04:07:29;21.98;;;19.85;;
69172;SDS011;56280;49.662;8.408;2023-04-06T04:09:55;25.40;;;22.90;;
69172;SDS011;56280;49.662;8.408;2023-04-06T04:12:20;23.65;;;21.25;;
69172;SDS011;56280;49.662;8.408;2023-04-06T04:14:46;24.07;;;21.77;;
69172;SDS011;56280;49.662;8.408;2023-04-06T04:17:11;25.23;;;22.73;;
69172;SDS011;56280;49.662;8.408;2023-04-06T04:19:36;22.17;;;19.97;;
69172;SDS011;56280;49.662;8.408;2023-04-06T04:22:02;23.57;;;21.27;;
69172;SDS011;56280;49.662;8.408;2023-04-06T04:24:29;23.92;;;21.45;;
69172;SDS011;56280;49.662;8.408;2023-04-06T04:26:55;21.45;;;19.33;;
69172;SDS011;56280;49.662;8.408;2023-04-06T04:29:25;23.55;;;19.73;;
69172;SDS011;56280;49.662;8.408;2023-04-06T04:31:50;21.87;;;19.60;;
69172;SDS011;56280;49.662;8.408;2023-04-06T04:34:17;22.07;;;19.77;;
69172;SDS011;56280;49.662;8.408;2023-04-06T04:36:45;23.63;;;21.23;;
69172;SDS011;56280;49.662;8.408;2023-04-06T04:39:10;22.57;;;20.27;;
69172;SDS011;56280;49.662;8.408;2023-04-06T04:41:35;23.83;;;20.30;;
69172;SDS011;56280;49.662;8.408;2023-04-06T04:44:00;22.43;;;20.03;;
69172;SDS011;56280;49.662;8.408;2023-04-06T04:46:26;21.10;;;19.00;;
69172;SDS011;56280;49.662;8.408;2023-04-06T04:48:51;21.87;;;19.60;;
69172;SDS011;56280;49.662;8.408;2023-04-06T04:51:16;22.98;;;20.58;;
69172;SDS011;56280;49.662;8.408;2023-04-06T04:53:42;21.40;;;19.23;;
69172;SDS011;56280;49.662;8.408;2023-04-06T04:56:07;21.17;;;18.97;;
69172;SDS011;56280;49.662;8.408;2023-04-06T04:58:33;20.23;;;18.03;;
69172;SDS011;56280;49.662;8.408;2023-04-06T05:00:58;21.83;;;19.67;;
69172;SDS011;56280;49.662;8.408;2023-04-06T05:03:24;21.57;;;19.43;;
69172;SDS011;56280;49.662;8.408;2023-04-06T05:05:51;21.45;;;19.17;;
69172;SDS011;56280;49.662;8.408;2023-04-06T05:08:16;21.25;;;19.08;;
69172;SDS011;56280;49.662;8.408;2023-04-06T05:10:41;22.08;;;19.73;;
69172;SDS011;56280;49.662;8.408;2023-04-06T05:13:07;21.33;;;19.05;;
69172;SDS011;56280;49.662;8.408;2023-04-06T05:15:36;21.63;;;19.45;;
69172;SDS011;56280;49.662;8.408;2023-04-06T05:18:03;22.10;;;19.45;;
69172;SDS011;56280;49.662;8.408;2023-04-06T05:20:29;23.33;;;19.98;;
69172;SDS011;56280;49.662;8.408;2023-04-06T05:22:55;21.73;;;19.53;;
69172;SDS011;56280;49.662;8.408;2023-04-06T05:25:20;21.20;;;19.00;;
69172;SDS011;56280;49.662;8.408;2023-04-06T05:27:45;24.23;;;21.63;;
69172;SDS011;56280;49.662;8.408;2023-04-06T05:30:11;23.20;;;21.00;;
69172;SDS011;56280;49.662;8.408;2023-04-06T05:32:36;23.90;;;21.33;;
69172;SDS011;56280;49.662;8.408;2023-04-06T05:35:01;25.33;;;22.60;;
69172;SDS011;56280;49.662;8.408;2023-04-06T05:37:27;24.00;;;21.43;;
69172;SDS011;56280;49.662;8.408;2023-04-06T05:39:52;24.97;;;21.60;;
69172;SDS011;56280;49.662;8.408;2023-04-06T05:42:17;27.10;;;24.30;;
69172;SDS011;56280;49.662;8.408;2023-04-06T05:44:43;25.93;;;23.43;;
69172;SDS011;56280;49.662;8.408;2023-04-06T05:47:08;24.33;;;21.77;;
69172;SDS011;56280;49.662;8.408;2023-04-06T05:49:34;25.23;;;22.90;;
69172;SDS011;56280;49.662;8.408;2023-04-06T05:52:00;26.42;;;23.95;;
69172;SDS011;56280;49.662;8.408;2023-04-06T05:54:26;26.30;;;23.93;;
69172;SDS011;56280;49.662;8.408;2023-04-06T05:56:52;25.65;;;23.40;;
69172;SDS011;56280;49.662;8.408;2023-04-06T05:59:17;26.13;;;23.73;;
69172;SDS011;56280;49.662;8.408;2023-04-06T06:01:43;27.13;;;24.63;;
69172;SDS011;56280;49.662;8.408;2023-04-06T06:04:09;25.53;;;23.00;;
69172;SDS011;56280;49.662;8.408;2023-04-06T06:06:35;25.48;;;23.08;;
69172;SDS011;56280;49.662;8.408;2023-04-06T06:09:02;25.95;;;23.38;;
69172;SDS011;56280;49.662;8.408;2023-04-06T06:11:28;25.90;;;23.65;;
69172;SDS011;56280;49.662;8.408;2023-04-06T06:13:54;26.30;;;24.08;;
69172;SDS011;56280;49.662;8.408;2023-04-06T06:16:23;27.05;;;24.48;;
69172;SDS011;56280;49.662;8.408;2023-04-06T06:18:49;26.73;;;24.27;;
69172;SDS011;56280;49.662;8.408;2023-04-06T06:21:14;27.10;;;24.70;;
69172;SDS011;56280;49.662;8.408;2023-04-06T06:23:42;29.73;;;27.17;;
69172;SDS011;56280;49.662;8.408;2023-04-06T06:26:13;28.63;;;26.05;;
69172;SDS011;56280;49.662;8.408;2023-04-06T06:28:38;27.23;;;24.67;;
69172;SDS011;56280;49.662;8.408;2023-04-06T06:31:04;27.85;;;25.25;;
69172;SDS011;56280;49.662;8.408;2023-04-06T06:33:32;29.05;;;26.25;;
69172;SDS011;56280;49.662;8.408;2023-04-06T06:35:58;29.17;;;26.48;;
69172;SDS011;56280;49.662;8.408;2023-04-06T06:38:24;32.10;;;29.20;;
69172;SDS011;56280;49.662;8.408;2023-04-06T06:40:50;30.63;;;27.83;;
69172;SDS011;56280;49.662;8.408;2023-04-06T06:43:15;29.87;;;27.13;;
69172;SDS011;56280;49.662;8.408;2023-04-06T06:45:50;29.50;;;26.75;;
69172;SDS011;56280;49.662;8.408;2023-04-06T06:48:15;30.03;;;27.33;;
69172;SDS011;56280;49.662;8.408;2023-04-06T06:50:41;31.90;;;29.00;;
69172;SDS011;56280;49.662;8.408;2023-04-06T06:53:06;32.47;;;29.70;;
69172;SDS011;56280;49.662;8.408;2023-04-06T06:55:32;28.33;;;25.73;;
69172;SDS011;56280;49.662;8.408;2023-04-06T06:57:58;29.17;;;26.58;;
69172;SDS011;56280;49.662;8.408;2023-04-06T07:00:23;29.67;;;27.17;;
69172;SDS011;56280;49.662;8.408;2023-04-06T07:02:49;29.63;;;27.13;;
69172;SDS011;56280;49.662;8.408;2023-04-06T07:05:15;30.42;;;27.90;;
69172;SDS011;56280;49.662;8.408;2023-04-06T07:07:41;32.97;;;30.13;;
69172;SDS011;56280;49.662;8.408;2023-04-06T07:10:07;30.20;;;27.60;;
69172;SDS011;56280;49.662;8.408;2023-04-06T07:12:33;30.10;;;27.40;;
69172;SDS011;56280;49.662;8.408;2023-04-06T07:14:59;30.08;;;27.42;;
69172;SDS011;56280;49.662;8.408;2023-04-06T07:17:25;26.95;;;24.45;;
69172;SDS011;56280;49.662;8.408;2023-04-06T07:19:51;22.07;;;19.77;;
69172;SDS011;56280;49.662;8.408;2023-04-06T07:22:16;19.30;;;16.45;;
69172;SDS011;56280;49.662;8.408;2023-04-06T07:24:42;18.83;;;15.23;;
69172;SDS011;56280;49.662;8.408;2023-04-06T07:27:08;21.00;;;15.80;;
69172;SDS011;56280;49.662;8.408;2023-04-06T07:29:33;20.30;;;17.93;;
69172;SDS011;56280;49.662;8.408;2023-04-06T07:31:59;22.53;;;20.37;;
69172;SDS011;56280;49.662;8.408;2023-04-06T07:34:24;18.07;;;16.17;;
69172;SDS011;56280;49.662;8.408;2023-04-06T07:36:49;18.67;;;12.10;;
69172;SDS011;56280;49.662;8.408;2023-04-06T07:39:15;16.50;;;12.23;;
69172;SDS011;56280;49.662;8.408;2023-04-06T07:41:41;16.75;;;11.95;;
69172;SDS011;56280;49.662;8.408;2023-04-06T07:44:06;13.80;;;11.77;;
69172;SDS011;56280;49.662;8.408;2023-04-06T07:46:31;15.70;;;11.73;;
69172;SDS011;56280;49.662;8.408;2023-04-06T07:48:57;15.33;;;11.50;;
69172;SDS011;56280;49.662;8.408;2023-04-06T07:51:24;15.18;;;10.95;;
69172;SDS011;56280;49.662;8.408;2023-04-06T07:53:50;15.52;;;11.85;;
69172;SDS011;56280;49.662;8.408;2023-04-06T07:56:15;15.97;;;11.50;;
69172;SDS011;56280;49.662;8.408;2023-04-06T07:58:41;14.90;;;11.90;;
69172;SDS011;56280;49.662;8.408;2023-04-06T08:01:06;15.47;;;11.73;;
69172;SDS011;56280;49.662;8.408;2023-04-06T08:03:33;17.37;;;11.87;;
69172;SDS011;56280;49.662;8.408;2023-04-06T08:05:59;15.57;;;11.55;;
69172;SDS011;56280;49.662;8.408;2023-04-06T08:08:24;17.93;;;11.80;;
69172;SDS011;56280;49.662;8.408;2023-04-06T08:10:50;14.53;;;10.80;;
69172;SDS011;56280;49.662;8.408;2023-04-06T08:13:15;12.87;;;10.73;;
69172;SDS011;56280;49.662;8.408;2023-04-06T08:15:41;14.87;;;10.77;;
69172;SDS011;56280;49.662;8.408;2023-04-06T08:18:06;14.30;;;10.93;;
69172;SDS011;56280;49.662;8.408;2023-04-06T08:20:31;13.87;;;10.50;;
69172;SDS011;56280;49.662;8.408;2023-04-06T08:22:57;16.13;;;11.50;;
69172;SDS011;56280;49.662;8.408;2023-04-06T08:25:22;14.17;;;11.10;;
69172;SDS011;56280;49.662;8.408;2023-04-06T08:27:47;16.67;;;11.03;;
69172;SDS011;56280;49.662;8.408;2023-04-06T08:30:13;15.20;;;11.30;;
69172;SDS011;56280;49.662;8.408;2023-04-06T08:32:40;14.40;;;11.25;;
69172;SDS011;56280;49.662;8.408;2023-04-06T08:35:06;15.87;;;11.53;;
69172;SDS011;56280;49.662;8.408;2023-04-06T08:37:32;16.67;;;12.23;;
69172;SDS011;56280;49.662;8.408;2023-04-06T08:39:57;17.10;;;12.10;;
69172;SDS011;56280;49.662;8.408;2023-04-06T08:42:23;18.63;;;11.60;;
69172;SDS011;56280;49.662;8.408;2023-04-06T08:44:51;17.17;;;12.27;;
69172;SDS011;56280;49.662;8.408;2023-04-06T08:47:17;19.20;;;12.60;;
69172;SDS011;56280;49.662;8.408;2023-04-06T08:49:43;16.97;;;12.20;;
69172;SDS011;56280;49.662;8.408;2023-04-06T08:52:10;16.77;;;12.20;;
69172;SDS011;56280;49.662;8.408;2023-04-06T08:54:36;17.07;;;12.43;;
69172;SDS011;56280;49.662;8.408;2023-04-06T08:57:02;16.95;;;12.70;;
69172;SDS011;56280;49.662;8.408;2023-04-06T08:59:28;17.83;;;12.73;;
69172;SDS011;56280;49.662;8.408;2023-04-06T09:01:54;16.17;;;12.20;;
69172;SDS011;56280;49.662;8.408;2023-04-06T09:04:20;17.17;;;12.93;;
69172;SDS011;56280;49.662;8.408;2023-04-06T09:06:46;17.47;;;12.50;;
69172;SDS011;56280;49.662;8.408;2023-04-06T09:09:11;16.67;;;12.80;;
69172;SDS011;56280;49.662;8.408;2023-04-06T09:11:49;16.40;;;12.97;;
69172;SDS011;56280;49.662;8.408;2023-04-06T09:14:15;16.48;;;12.55;;
69172;SDS011;56280;49.662;8.408;2023-04-06T09:16:42;18.35;;;12.88;;
69172;SDS011;56280;49.662;8.408;2023-04-06T09:19:09;17.05;;;13.05;;
69172;SDS011;56280;49.662;8.408;2023-04-06T09:21:35;18.05;;;13.45;;
69172;SDS011;56280;49.662;8.408;2023-04-06T09:24:02;20.40;;;13.60;;
69172;SDS011;56280;49.662;8.408;2023-04-06T09:26:28;16.67;;;12.20;;
69172;SDS011;56280;49.662;8.408;2023-04-06T09:28:54;16.73;;;12.93;;
69172;SDS011;56280;49.662;8.408;2023-04-06T09:31:22;17.08;;;12.73;;
69172;SDS011;56280;49.662;8.408;2023-04-06T09:33:52;18.27;;;13.60;;
69172;SDS011;56280;49.662;8.408;2023-04-06T09:36:18;18.35;;;13.45;;
69172;SDS011;56280;49.662;8.408;2023-04-06T09:38:55;18.10;;;12.93;;
69172;SDS011;56280;49.662;8.408;2023-04-06T09:41:31;18.47;;;13.40;;
69172;SDS011;56280;49.662;8.408;2023-04-06T09:44:05;17.77;;;13.43;;
69172;SDS011;56280;49.662;8.408;2023-04-06T09:46:33;17.88;;;12.95;;
69172;SDS011;56280;49.662;8.408;2023-04-06T09:49:06;18.23;;;12.90;;
69172;SDS011;56280;49.662;8.408;2023-04-06T09:51:36;19.73;;;13.40;;
69172;SDS011;56280;49.662;8.408;2023-04-06T09:54:07;18.57;;;13.83;;
69172;SDS011;56280;49.662;8.408;2023-04-06T09:59:31;19.27;;;13.73;;
69172;SDS011;56280;49.662;8.408;2023-04-06T10:02:05;18.85;;;13.32;;
69172;SDS011;56280;49.662;8.408;2023-04-06T10:07:11;17.80;;;13.77;;
69172;SDS011;56280;49.662;8.408;2023-04-06T10:09:38;19.02;;;12.98;;
69172;SDS011;56280;49.662;8.408;2023-04-06T10:12:06;17.75;;;12.95;;
69172;SDS011;56280;49.662;8.408;2023-04-06T10:14:33;16.08;;;12.15;;
69172;SDS011;56280;49.662;8.408;2023-04-06T10:17:02;18.65;;;11.70;;
69172;SDS011;56280;49.662;8.408;2023-04-06T10:19:28;15.18;;;11.43;;
69172;SDS011;56280;49.662;8.408;2023-04-06T10:22:03;15.48;;;11.10;;
69172;SDS011;56280;49.662;8.408;2023-04-06T10:24:31;15.80;;;10.85;;
69172;SDS011;56280;49.662;8.408;2023-04-06T10:27:06;14.30;;;10.50;;
69172;SDS011;56280;49.662;8.408;2023-04-06T10:29:42;16.60;;;11.32;;
69172;SDS011;56280;49.662;8.408;2023-04-06T10:32:08;16.00;;;11.40;;
69172;SDS011;56280;49.662;8.408;2023-04-06T10:34:34;15.23;;;10.57;;
69172;SDS011;56280;49.662;8.408;2023-04-06T10:37:09;14.40;;;10.50;;
69172;SDS011;56280;49.662;8.408;2023-04-06T10:39:35;14.20;;;10.27;;
69172;SDS011;56280;49.662;8.408;2023-04-06T10:42:11;13.27;;;10.27;;
69172;SDS011;56280;49.662;8.408;2023-04-06T10:44:41;14.35;;;10.60;;
69172;SDS011;56280;49.662;8.408;2023-04-06T10:47:15;13.48;;;10.20;;
69172;SDS011;56280;49.662;8.408;2023-04-06T10:49:42;13.95;;;9.98;;
69172;SDS011;56280;49.662;8.408;2023-04-06T10:52:08;14.27;;;10.30;;
69172;SDS011;56280;49.662;8.408;2023-04-06T10:54:34;16.08;;;10.52;;
69172;SDS011;56280;49.662;8.408;2023-04-06T10:57:06;13.73;;;9.97;;
69172;SDS011;56280;49.662;8.408;2023-04-06T10:59:31;13.63;;;9.40;;
69172;SDS011;56280;49.662;8.408;2023-04-06T11:01:56;14.53;;;9.60;;
69172;SDS011;56280;49.662;8.408;2023-04-06T11:04:22;14.20;;;10.13;;
69172;SDS011;56280;49.662;8.408;2023-04-06T11:06:48;14.65;;;10.23;;
69172;SDS011;56280;49.662;8.408;2023-04-06T11:09:24;14.47;;;9.97;;
69172;SDS011;56280;49.662;8.408;2023-04-06T11:11:51;14.05;;;9.63;;
69172;SDS011;56280;49.662;8.408;2023-04-06T11:14:17;15.00;;;9.80;;
69172;SDS011;56280;49.662;8.408;2023-04-06T11:16:42;15.07;;;9.43;;
69172;SDS011;56280;49.662;8.408;2023-04-06T11:19:12;12.73;;;8.98;;
69172;SDS011;56280;49.662;8.408;2023-04-06T11:21:44;14.47;;;9.37;;
69172;SDS011;56280;49.662;8.408;2023-04-06T11:24:17;12.98;;;8.68;;
69172;SDS011;56280;49.662;8.408;2023-04-06T11:26:57;13.43;;;8.60;;
69172;SDS011;56280;49.662;8.408;2023-04-06T11:29:27;12.50;;;8.90;;
69172;SDS011;56280;49.662;8.408;2023-04-06T11:31:54;12.63;;;8.47;;
69172;SDS011;56280;49.662;8.408;2023-04-06T11:34:27;11.10;;;7.80;;
69172;SDS011;56280;49.662;8.408;2023-04-06T11:36:56;11.50;;;6.90;;
69172;SDS011;56280;49.662;8.408;2023-04-06T11:39:24;10.50;;;7.22;;
69172;SDS011;56280;49.662;8.408;2023-04-06T11:41:52;13.45;;;7.00;;
69172;SDS011;56280;49.662;8.408;2023-04-06T11:44:35;10.02;;;7.03;;
69172;SDS011;56280;49.662;8.408;2023-04-06T11:47:04;10.93;;;6.80;;
69172;SDS011;56280;49.662;8.408;2023-04-06T11:49:31;10.15;;;6.80;;
69172;SDS011;56280;49.662;8.408;2023-04-06T11:51:58;10.97;;;7.20;;
69172;SDS011;56280;49.662;8.408;2023-04-06T11:54:31;11.75;;;7.28;;
69172;SDS011;56280;49.662;8.408;2023-04-06T11:56:56;10.57;;;6.82;;
69172;SDS011;56280;49.662;8.408;2023-04-06T11:59:22;11.75;;;7.28;;
69172;SDS011;56280;49.662;8.408;2023-04-06T12:01:47;10.63;;;7.60;;
69172;SDS011;56280;49.662;8.408;2023-04-06T12:04:13;11.60;;;8.40;;
69172;SDS011;56280;49.662;8.408;2023-04-06T12:06:38;10.67;;;7.97;;
69172;SDS011;56280;49.662;8.408;2023-04-06T12:09:03;11.63;;;7.40;;
69172;SDS011;56280;49.662;8.408;2023-04-06T12:11:29;10.60;;;7.33;;
69172;SDS011;56280;49.662;8.408;2023-04-06T12:13:54;11.27;;;7.25;;
69172;SDS011;56280;49.662;8.408;2023-04-06T12:16:20;10.82;;;7.28;;
69172;SDS011;56280;49.662;8.408;2023-04-06T12:18:45;9.80;;;7.00;;
69172;SDS011;56280;49.662;8.408;2023-04-06T12:21:10;9.50;;;6.53;;
69172;SDS011;56280;49.662;8.408;2023-04-06T12:23:36;10.07;;;7.03;;
69172;SDS011;56280;49.662;8.408;2023-04-06T12:26:01;10.27;;;7.00;;
69172;SDS011;56280;49.662;8.408;2023-04-06T12:28:27;10.50;;;7.15;;
69172;SDS011;56280;49.662;8.408;2023-04-06T12:30:53;10.25;;;7.05;;
69172;SDS011;56280;49.662;8.408;2023-04-06T12:33:19;10.65;;;6.97;;
69172;SDS011;56280;49.662;8.408;2023-04-06T12:35:45;10.57;;;6.93;;
69172;SDS011;56280;49.662;8.408;2023-04-06T12:38:10;12.23;;;6.80;;
69172;SDS011;56280;49.662;8.408;2023-04-06T12:40:36;10.83;;;6.30;;
69172;SDS011;56280;49.662;8.408;2023-04-06T12:43:04;10.95;;;6.70;;
69172;SDS011;56280;49.662;8.408;2023-04-06T12:45:31;9.98;;;6.97;;
69172;SDS011;56280;49.662;8.408;2023-04-06T12:47:56;9.95;;;6.82;;
69172;SDS011;56280;49.662;8.408;2023-04-06T12:50:22;11.43;;;7.20;;
69172;SDS011;56280;49.662;8.408;2023-04-06T12:52:47;10.43;;;7.73;;
69172;SDS011;56280;49.662;8.408;2023-04-06T12:55:12;11.43;;;8.57;;
69172;SDS011;56280;49.662;8.408;2023-04-06T12:57:38;11.03;;;8.00;;
69172;SDS011;56280;49.662;8.408;2023-04-06T13:00:03;12.53;;;7.97;;
69172;SDS011;56280;49.662;8.408;2023-04-06T13:02:30;10.65;;;7.28;;
69172;SDS011;56280;49.662;8.408;2023-04-06T13:07:43;50.50;;;15.05;;
69172;SDS011;56280;49.662;8.408;2023-04-06T13:10:09;53.97;;;14.70;;
69172;SDS011;56280;49.662;8.408;2023-04-06T13:12:35;12.77;;;8.80;;
69172;SDS011;56280;49.662;8.408;2023-04-06T13:15:00;13.25;;;9.32;;
69172;SDS011;56280;49.662;8.408;2023-04-06T13:17:26;12.00;;;8.20;;
69172;SDS011;56280;49.662;8.408;2023-04-06T13:19:52;12.38;;;7.47;;
69172;SDS011;56280;49.662;8.408;2023-04-06T13:22:17;11.43;;;7.43;;
69172;SDS011;56280;49.662;8.408;2023-04-06T13:24:43;10.53;;;6.73;;
69172;SDS011;56280;49.662;8.408;2023-04-06T13:27:08;11.13;;;7.20;;
69172;SDS011;56280;49.662;8.408;2023-04-06T13:29:33;11.47;;;7.00;;
69172;SDS011;56280;49.662;8.408;2023-04-06T13:31:59;12.43;;;7.20;;
69172;SDS011;56280;49.662;8.408;2023-04-06T13:34:24;11.03;;;6.47;;
69172;SDS011;56280;49.662;8.408;2023-04-06T13:36:50;23.23;;;9.30;;
69172;SDS011;56280;49.662;8.408;2023-04-06T13:39:15;10.32;;;6.47;;
69172;SDS011;56280;49.662;8.408;2023-04-06T13:41:40;11.02;;;6.80;;
69172;SDS011;56280;49.662;8.408;2023-04-06T13:44:06;11.00;;;6.90;;
69172;SDS011;56280;49.662;8.408;2023-04-06T13:46:31;12.97;;;7.07;;
69172;SDS011;56280;49.662;8.408;2023-04-06T13:48:57;10.35;;;6.65;;
69172;SDS011;56280;49.662;8.408;2023-04-06T13:51:22;11.43;;;6.90;;
69172;SDS011;56280;49.662;8.408;2023-04-06T13:53:47;9.83;;;6.30;;
69172;SDS011;56280;49.662;8.408;2023-04-06T13:56:15;11.45;;;7.05;;
69172;SDS011;56280;49.662;8.408;2023-04-06T13:58:40;10.63;;;6.93;;
69172;SDS011;56280;49.662;8.408;2023-04-06T14:01:06;9.43;;;6.30;;
69172;SDS011;56280;49.662;8.408;2023-04-06T14:03:32;10.52;;;6.10;;
69172;SDS011;56280;49.662;8.408;2023-04-06T14:05:58;9.85;;;5.90;;
69172;SDS011;56280;49.662;8.408;2023-04-06T14:08:24;8.20;;;5.67;;
69172;SDS011;56280;49.662;8.408;2023-04-06T14:10:50;9.32;;;5.60;;
69172;SDS011;56280;49.662;8.408;2023-04-06T14:13:15;8.70;;;5.50;;
69172;SDS011;56280;49.662;8.408;2023-04-06T14:15:41;10.63;;;5.72;;
69172;SDS011;56280;49.662;8.408;2023-04-06T14:18:07;8.73;;;5.43;;
69172;SDS011;56280;49.662;8.408;2023-04-06T14:20:33;9.10;;;6.13;;
69172;SDS011;56280;49.662;8.408;2023-04-06T14:23:00;10.53;;;5.70;;
69172;SDS011;56280;49.662;8.408;2023-04-06T14:25:26;8.55;;;5.20;;
69172;SDS011;56280;49.662;8.408;2023-04-06T14:27:51;8.33;;;5.37;;
69172;SDS011;56280;49.662;8.408;2023-04-06T14:30:16;7.70;;;5.00;;